createdAt,value
2022-10-01T00:02:01.358Z,100434.53
2022-10-01T00:04:28.077Z,100434.53
2022-10-01T00:06:54.648Z,100427.47
2022-10-01T00:09:21.220Z,100414.22
2022-10-01T00:11:47.853Z,100408.09
2022-10-01T00:14:14.571Z,100408.97
2022-10-01T00:16:41.283Z,100426.59
2022-10-01T00:19:15.029Z,100501.56
2022-10-01T00:21:41.792Z,100530.66
2022-10-01T00:24:11.273Z,100488.34
2022-10-01T00:26:39.036Z,100404.56
2022-10-01T00:29:07.443Z,100379.03
2022-10-01T00:31:34.501Z,100420.50
2022-10-01T00:34:02.960Z,100435.50
2022-10-01T00:36:29.696Z,100433.72
2022-10-01T00:39:00.433Z,100424.94
2022-10-01T00:41:28.204Z,100423.13
2022-10-01T00:43:59.629Z,100424.06
2022-10-01T00:46:39.235Z,100423.13
2022-10-01T00:49:11.175Z,100421.41
2022-10-01T00:51:39.774Z,100418.78
2022-10-01T00:54:11.569Z,100416.13
2022-10-01T00:56:38.231Z,100416.13
2022-10-01T00:59:05.263Z,100414.41
2022-10-01T01:01:32.134Z,100416.19
2022-10-01T01:03:59.001Z,100417.06
2022-10-01T01:06:25.566Z,100416.19
2022-10-01T01:08:55.176Z,100414.41
2022-10-01T01:11:40.115Z,100416.19
2022-10-01T01:14:25.081Z,100418.84
2022-10-01T01:16:54.469Z,100420.63
2022-10-01T01:19:33.107Z,100404.75
2022-10-01T01:22:01.506Z,100405.63
2022-10-01T01:24:46.041Z,100409.16
2022-10-01T01:27:16.370Z,100413.59
2022-10-01T01:29:50.892Z,100419.75
2022-10-01T01:32:42.809Z,100429.47
2022-10-01T01:35:10.301Z,100435.62
2022-10-01T01:37:39.505Z,100438.31
2022-10-01T01:40:10.184Z,100430.41
2022-10-01T01:42:37.315Z,100431.25
2022-10-01T01:45:06.208Z,100422.47
2022-10-01T01:47:34.369Z,100428.59
2022-10-01T01:50:02.849Z,100433.91
2022-10-01T01:52:29.499Z,100423.31
2022-10-01T01:54:56.176Z,100427.75
2022-10-01T01:57:22.761Z,100417.16
2022-10-01T01:59:49.339Z,100418.97
2022-10-01T02:02:36.137Z,100418.97
2022-10-01T02:05:05.475Z,100410.16
2022-10-01T02:07:54.056Z,100415.44
2022-10-01T02:10:32.560Z,100401.38
2022-10-01T02:13:05.979Z,100390.72
2022-10-01T02:15:59.591Z,100385.50
2022-10-01T02:18:44.801Z,100384.66
2022-10-01T02:21:19.504Z,100387.28
2022-10-01T02:23:55.311Z,100391.72
2022-10-01T02:26:21.722Z,100395.22
2022-10-01T02:28:48.123Z,100406.69
2022-10-01T02:31:15.585Z,100413.78
2022-10-01T02:33:42.822Z,100419.03
2022-10-01T02:36:09.735Z,100414.62
2022-10-01T02:38:37.047Z,100420.84
2022-10-01T02:41:05.114Z,100421.72
2022-10-01T02:43:37.389Z,100409.41
2022-10-01T02:46:15.065Z,100411.13
2022-10-01T02:48:41.695Z,100420.84
2022-10-01T02:51:18.977Z,100420.84
2022-10-01T02:53:47.434Z,100411.13
2022-10-01T02:56:33.919Z,100412.06
2022-10-01T02:59:00.471Z,100408.56
2022-10-01T03:01:27.037Z,100420.00
2022-10-01T03:03:53.947Z,100428.84
2022-10-01T03:06:20.540Z,100421.78
2022-10-01T03:08:47.125Z,100418.28
2022-10-01T03:11:16.139Z,100431.50
2022-10-01T03:13:43.847Z,100423.56
2022-10-01T03:16:13.432Z,100421.78
2022-10-01T03:18:40.004Z,100406.00
2022-10-01T03:21:06.627Z,100403.34
2022-10-01T03:23:33.216Z,100413.91
2022-10-01T03:25:59.763Z,100413.91
2022-10-01T03:28:26.429Z,100397.19
2022-10-01T03:30:53.149Z,100406.00
2022-10-01T03:33:19.726Z,100421.00
2022-10-01T03:35:46.291Z,100421.00
2022-10-01T03:38:13.759Z,100425.41
2022-10-01T03:40:40.350Z,100438.62
2022-10-01T03:43:07.227Z,100463.34
2022-10-01T03:45:33.827Z,100468.59
2022-10-01T03:48:00.645Z,100456.28
2022-10-01T03:50:27.362Z,100458.91
2022-10-01T03:52:53.954Z,100466.00
2022-10-01T03:55:20.532Z,100457.13
2022-10-01T03:57:47.338Z,100447.47
2022-10-01T04:00:14.104Z,100438.69
2022-10-01T04:02:40.750Z,100430.75
2022-10-01T04:05:07.761Z,100426.41
2022-10-01T04:07:34.341Z,100428.09
2022-10-01T04:10:00.892Z,100412.25
2022-10-01T04:12:27.438Z,100406.09
2022-10-01T04:14:56.122Z,100403.44
2022-10-01T04:17:22.735Z,100404.31
2022-10-01T04:19:49.414Z,100411.38
2022-10-01T04:22:16.036Z,100414.88
2022-10-01T04:24:42.620Z,100414.03
2022-10-01T04:27:09.303Z,100412.25
2022-10-01T04:29:40.075Z,100404.25
2022-10-01T04:32:07.213Z,100404.25
2022-10-01T04:34:52.109Z,100402.53
2022-10-01T04:37:19.647Z,100411.31
2022-10-01T04:39:46.211Z,100418.38
2022-10-01T04:42:13.429Z,100418.38
2022-10-01T04:44:40.280Z,100423.69
2022-10-01T04:47:07.366Z,100413.97
2022-10-01T04:49:34.176Z,100401.59
2022-10-01T04:52:01.873Z,100407.81
2022-10-01T04:54:28.429Z,100414.81
2022-10-01T04:56:55.032Z,100416.59
2022-10-01T04:59:21.850Z,100414.81
2022-10-01T05:01:48.458Z,100417.47
2022-10-01T05:04:15.044Z,100419.25
2022-10-01T05:06:41.759Z,100417.47
2022-10-01T05:09:08.324Z,100418.38
2022-10-01T05:11:35.291Z,100414.81
2022-10-01T05:14:02.104Z,100425.41
2022-10-01T05:16:28.793Z,100426.31
2022-10-01T05:18:55.404Z,100433.34
2022-10-01T05:21:21.947Z,100443.06
2022-10-01T05:23:48.515Z,100470.34
2022-10-01T05:26:15.090Z,100485.31
2022-10-01T05:28:44.725Z,100480.94
2022-10-01T05:31:12.053Z,100467.72
2022-10-01T05:33:38.679Z,100451.84
2022-10-01T05:36:06.820Z,100462.41
2022-10-01T05:38:37.237Z,100451.84
2022-10-01T05:41:04.742Z,100454.50
2022-10-01T05:43:37.751Z,100449.19
2022-10-01T05:46:05.536Z,100447.44
2022-10-01T05:48:34.586Z,100442.16
2022-10-01T05:51:01.187Z,100438.62
2022-10-01T05:53:27.918Z,100428.03
2022-10-01T05:56:00.235Z,100430.69
2022-10-01T05:58:27.402Z,100429.81
2022-10-01T06:00:55.187Z,100432.47
2022-10-01T06:03:21.787Z,100438.62
2022-10-01T06:05:48.426Z,100438.62
2022-10-01T06:08:15.017Z,100434.25
2022-10-01T06:10:41.651Z,100428.03
2022-10-01T06:13:08.180Z,100425.41
2022-10-01T06:15:37.866Z,100414.81
2022-10-01T06:18:05.637Z,100420.09
2022-10-01T06:20:32.198Z,100398.94
2022-10-01T06:23:01.003Z,100403.37
2022-10-01T06:25:31.184Z,100403.37
2022-10-01T06:27:59.668Z,100395.44
2022-10-01T06:30:29.546Z,100376.94
2022-10-01T06:33:15.609Z,100374.28
2022-10-01T06:35:43.787Z,100384.88
2022-10-01T06:38:10.932Z,100412.16
2022-10-01T06:40:40.415Z,100421.00
2022-10-01T06:43:08.405Z,100430.69
2022-10-01T06:45:40.017Z,100426.31
2022-10-01T06:48:07.967Z,100421.00
2022-10-01T06:50:34.617Z,100414.81
2022-10-01T06:53:02.120Z,100420.09
2022-10-01T06:55:31.095Z,100412.16
2022-10-01T06:58:02.504Z,100404.25
2022-10-01T07:00:30.125Z,100418.34
2022-10-01T07:02:56.802Z,100419.22
2022-10-01T07:05:24.057Z,100410.47
2022-10-01T07:07:50.654Z,100421.00
2022-10-01T07:10:19.904Z,100421.00
2022-10-01T07:12:49.000Z,100418.34
2022-10-01T07:15:15.943Z,100427.16
2022-10-01T07:17:43.969Z,100416.59
2022-10-01T07:20:11.983Z,100417.47
2022-10-01T07:22:38.731Z,100408.66
2022-10-01T07:25:05.772Z,100404.25
2022-10-01T07:27:32.314Z,100404.25
2022-10-01T07:29:59.008Z,100403.34
2022-10-01T07:32:25.942Z,100386.63
2022-10-01T07:34:52.506Z,100397.19
2022-10-01T07:37:19.095Z,100398.94
2022-10-01T07:39:45.712Z,100382.19
2022-10-01T07:42:12.326Z,100379.53
2022-10-01T07:44:38.879Z,100379.53
2022-10-01T07:47:05.423Z,100375.16
2022-10-01T07:49:32.071Z,100368.09
2022-10-01T07:51:59.132Z,100373.41
2022-10-01T07:54:25.982Z,100376.03
2022-10-01T07:56:58.078Z,100384.84
2022-10-01T07:59:26.855Z,100387.47
2022-10-01T08:01:53.913Z,100389.25
2022-10-01T08:04:39.824Z,100376.91
2022-10-01T08:07:09.819Z,100376.91
2022-10-01T08:09:36.459Z,100382.19
2022-10-01T08:12:03.134Z,100387.47
2022-10-01T08:14:30.434Z,100382.19
2022-10-01T08:16:57.202Z,100376.03
2022-10-01T08:19:24.560Z,100379.53
2022-10-01T08:21:51.162Z,100378.69
2022-10-01T08:24:17.967Z,100382.19
2022-10-01T08:26:44.666Z,100381.31
2022-10-01T08:29:16.203Z,100379.59
2022-10-01T08:31:43.569Z,100381.31
2022-10-01T08:34:10.156Z,100383.97
2022-10-01T08:36:37.870Z,100390.13
2022-10-01T08:39:04.451Z,100376.03
2022-10-01T08:41:37.074Z,100367.22
2022-10-01T08:44:04.473Z,100353.09
2022-10-01T08:46:32.836Z,100346.94
2022-10-01T08:49:17.623Z,100349.59
2022-10-01T08:51:56.118Z,100345.16
2022-10-01T08:54:39.342Z,100345.16
2022-10-01T08:57:11.270Z,100341.66
2022-10-01T08:59:44.476Z,100337.22
2022-10-01T09:02:35.252Z,100345.16
2022-10-01T09:05:04.423Z,100340.78
2022-10-01T09:08:01.947Z,100340.78
2022-10-01T09:10:53.391Z,100338.13
2022-10-01T09:13:41.343Z,100327.53
2022-10-01T09:16:16.907Z,100322.25
2022-10-01T09:19:22.293Z,100338.13
2022-10-01T09:22:07.831Z,100335.47
2022-10-01T09:24:40.680Z,100335.47
2022-10-01T09:27:15.476Z,100340.78
2022-10-01T09:29:54.807Z,100338.13
2022-10-01T09:32:23.466Z,100335.47
2022-10-01T09:34:50.016Z,100327.53
2022-10-01T09:37:35.483Z,100329.34
2022-10-01T09:40:12.838Z,100325.78
2022-10-01T09:42:39.545Z,100316.97
2022-10-01T09:45:06.922Z,100314.31
2022-10-01T09:47:34.255Z,100321.41
2022-10-01T09:50:00.818Z,100319.63
2022-10-01T09:52:31.506Z,100331.09
2022-10-01T09:55:05.729Z,100329.28
2022-10-01T09:57:40.470Z,100316.06
2022-10-01T10:00:12.864Z,100307.28
2022-10-01T10:02:48.788Z,100311.69
2022-10-01T10:05:23.104Z,100306.34
2022-10-01T10:07:52.203Z,100305.50
2022-10-01T10:10:41.452Z,100304.63
2022-10-01T10:13:10.901Z,100301.91
2022-10-01T10:15:58.739Z,100295.78
2022-10-01T10:18:35.460Z,100291.34
2022-10-01T10:21:03.539Z,100274.63
2022-10-01T10:23:31.335Z,100288.69
2022-10-01T10:26:02.875Z,100280.75
2022-10-01T10:28:43.356Z,100274.63
2022-10-01T10:31:15.364Z,100265.81
2022-10-01T10:33:51.175Z,100274.63
2022-10-01T10:36:19.682Z,100273.69
2022-10-01T10:38:47.935Z,100279.81
2022-10-01T10:41:16.800Z,100261.31
2022-10-01T10:43:44.118Z,100263.00
2022-10-01T10:46:10.737Z,100255.09
2022-10-01T10:48:45.043Z,100249.75
2022-10-01T10:51:11.603Z,100255.91
2022-10-01T10:53:46.359Z,100252.34
2022-10-01T10:56:21.936Z,100242.69
2022-10-01T10:58:49.189Z,100246.19
2022-10-01T11:01:18.703Z,100247.91
2022-10-01T11:03:49.892Z,100235.53
2022-10-01T11:06:20.937Z,100239.88
2022-10-01T11:08:57.236Z,100235.53
2022-10-01T11:11:34.269Z,100239.03
2022-10-01T11:14:23.772Z,100230.19
2022-10-01T11:17:09.795Z,100227.59
2022-10-01T11:20:10.734Z,100216.09
2022-10-01T11:22:48.442Z,100204.72
2022-10-01T11:26:03.075Z,100200.28
2022-10-01T11:28:37.215Z,100191.50
2022-10-01T11:31:24.820Z,100183.56
2022-10-01T11:34:20.695Z,100180.06
2022-10-01T11:36:56.043Z,100173.00
2022-10-01T11:39:23.383Z,100170.34
2022-10-01T11:41:55.093Z,100169.41
2022-10-01T11:44:26.927Z,100158.84
2022-10-01T11:46:59.066Z,100167.69
2022-10-01T11:49:50.687Z,100162.41
2022-10-01T11:52:39.207Z,100157.12
2022-10-01T11:55:41.502Z,100146.53
2022-10-01T11:58:34.961Z,100143.81
2022-10-01T12:01:17.047Z,100148.25
2022-10-01T12:03:56.729Z,100138.59
2022-10-01T12:06:26.802Z,100136.81
2022-10-01T12:09:16.833Z,100136.81
2022-10-01T12:11:46.502Z,100140.31
2022-10-01T12:14:16.833Z,100128.87
2022-10-01T12:16:58.374Z,100127.09
2022-10-01T12:19:30.057Z,100127.09
2022-10-01T12:22:25.057Z,100120.94
2022-10-01T12:24:51.898Z,100121.81
2022-10-01T12:27:42.489Z,100120.03
2022-10-01T12:30:11.009Z,100116.53
2022-10-01T12:32:43.867Z,100105.94
2022-10-01T12:35:18.531Z,100119.16
2022-10-01T12:37:58.327Z,100108.59
2022-10-01T12:40:31.554Z,100112.94
2022-10-01T12:43:06.372Z,100112.09
2022-10-01T12:46:02.563Z,100114.81
2022-10-01T12:48:45.003Z,100115.59
2022-10-01T12:51:18.395Z,100105.09
2022-10-01T12:53:50.121Z,100116.53
2022-10-01T12:56:28.817Z,100111.22
2022-10-01T12:59:14.946Z,100103.28
2022-10-01T13:01:46.705Z,100098.00
2022-10-01T13:04:50.764Z,100092.72
2022-10-01T13:07:52.618Z,100084.78
2022-10-01T13:10:51.415Z,100075.06
2022-10-01T13:13:32.958Z,100062.69
2022-10-01T13:16:05.450Z,100065.34
2022-10-01T13:18:46.782Z,100056.53
2022-10-01T13:21:36.950Z,100056.50
2022-10-01T13:24:17.938Z,100056.50
2022-10-01T13:26:44.364Z,100054.75
2022-10-01T13:29:10.804Z,100051.22
2022-10-01T13:31:38.687Z,100039.78
2022-10-01T13:34:26.233Z,100031.84
2022-10-01T13:36:52.815Z,100037.97
2022-10-01T13:39:28.972Z,100045.06
2022-10-01T13:41:58.012Z,100032.69
2022-10-01T13:44:33.036Z,100014.19
2022-10-01T13:47:06.145Z,100018.62
2022-10-01T13:49:34.125Z,100008.91
2022-10-01T13:52:02.266Z,100019.47
2022-10-01T13:54:42.865Z,100018.53
2022-10-01T13:57:36.028Z,100015.03
2022-10-01T14:00:17.181Z,100013.31
2022-10-01T14:02:45.273Z,99994.81
2022-10-01T14:05:17.904Z,99995.66
2022-10-01T14:07:45.109Z,100008.91
2022-10-01T14:10:13.374Z,100008.91
2022-10-01T14:12:58.640Z,100016.81
2022-10-01T14:16:00.163Z,100016.81
2022-10-01T14:18:36.718Z,100012.38
2022-10-01T14:21:25.804Z,100008.91
2022-10-01T14:24:16.596Z,100013.31
2022-10-01T14:26:47.336Z,100011.53
2022-10-01T14:29:41.640Z,100008.91
2022-10-01T14:32:40.282Z,100019.47
2022-10-01T14:35:20.943Z,100015.88
2022-10-01T14:37:47.540Z,100013.25
2022-10-01T14:40:22.428Z,100010.59
2022-10-01T14:43:02.060Z,100008.91
2022-10-01T14:45:28.853Z,100003.59
2022-10-01T14:48:05.776Z,99995.66
2022-10-01T14:50:36.767Z,99994.81
2022-10-01T14:53:03.508Z,99985.09
2022-10-01T14:55:30.105Z,99987.72
2022-10-01T14:57:56.878Z,99985.09
2022-10-01T15:00:27.832Z,99979.81
2022-10-01T15:03:15.635Z,99984.16
2022-10-01T15:05:42.846Z,99990.38
2022-10-01T15:08:13.474Z,99992.09
2022-10-01T15:11:01.373Z,99988.59
2022-10-01T15:13:38.690Z,99996.53
2022-10-01T15:16:05.805Z,100000.97
2022-10-01T15:18:32.647Z,99998.31
2022-10-01T15:21:04.711Z,100004.47
2022-10-01T15:23:33.353Z,100006.25
2022-10-01T15:26:00.583Z,100004.47
2022-10-01T15:28:33.687Z,100019.38
2022-10-01T15:31:05.508Z,100015.88
2022-10-01T15:33:40.587Z,100015.88
2022-10-01T15:36:18.844Z,100024.69
2022-10-01T15:38:45.900Z,100021.19
2022-10-01T15:41:32.567Z,100026.47
2022-10-01T15:44:02.526Z,100026.47
2022-10-01T15:46:31.214Z,100031.75
2022-10-01T15:49:18.042Z,100033.47
2022-10-01T15:52:24.081Z,100031.75
2022-10-01T15:54:57.742Z,100034.41
2022-10-01T15:57:24.411Z,100031.75
2022-10-01T15:59:54.201Z,100038.75
2022-10-01T16:02:26.359Z,100032.63
2022-10-01T16:04:56.032Z,100040.53
2022-10-01T16:07:27.471Z,100044.03
2022-10-01T16:10:13.272Z,100035.25
2022-10-01T16:12:41.934Z,100037.91
2022-10-01T16:15:43.791Z,100037.06
2022-10-01T16:18:24.281Z,100036.19
2022-10-01T16:20:56.056Z,100036.13
2022-10-01T16:23:40.968Z,100035.25
2022-10-01T16:26:27.419Z,100034.41
2022-10-01T16:28:58.133Z,100039.69
2022-10-01T16:31:28.696Z,100042.34
2022-10-01T16:33:55.271Z,100042.34
2022-10-01T16:36:24.245Z,100040.63
2022-10-01T16:38:51.144Z,100039.69
2022-10-01T16:41:22.436Z,100042.34
2022-10-01T16:43:52.817Z,100045.91
2022-10-01T16:46:19.452Z,100049.41
2022-10-01T16:48:47.318Z,100049.41
2022-10-01T16:51:13.927Z,100052.06
2022-10-01T16:53:42.804Z,100054.72
2022-10-01T16:56:10.836Z,100057.34
2022-10-01T16:58:40.904Z,100048.56
2022-10-01T17:01:08.644Z,100052.06
2022-10-01T17:03:35.727Z,100046.78
2022-10-01T17:06:02.765Z,100040.63
2022-10-01T17:08:29.342Z,100026.56
2022-10-01T17:10:58.718Z,100032.69
2022-10-01T17:13:26.534Z,100037.13
2022-10-01T17:15:53.336Z,100030.91
2022-10-01T17:18:20.201Z,100040.63
2022-10-01T17:20:46.767Z,100043.28
2022-10-01T17:23:14.601Z,100037.97
2022-10-01T17:25:41.411Z,100037.13
2022-10-01T17:28:13.895Z,100040.63
2022-10-01T17:30:44.258Z,100035.34
2022-10-01T17:33:12.148Z,100031.84
2022-10-01T17:35:45.850Z,100035.34
2022-10-01T17:38:12.564Z,100034.47
2022-10-01T17:40:41.221Z,100041.53
2022-10-01T17:43:09.346Z,100040.63
2022-10-01T17:45:35.989Z,100045.13
2022-10-01T17:48:02.640Z,100048.62
2022-10-01T17:50:29.312Z,100054.75
2022-10-01T17:52:57.524Z,100051.22
2022-10-01T17:55:27.367Z,100053.91
2022-10-01T17:57:54.059Z,100053.91
2022-10-01T18:00:20.651Z,100058.34
2022-10-01T18:02:47.281Z,100064.47
2022-10-01T18:05:19.608Z,100057.41
2022-10-01T18:07:46.164Z,100063.63
2022-10-01T18:10:13.036Z,100052.09
2022-10-01T18:12:39.784Z,100054.75
2022-10-01T18:15:06.820Z,100053.91
2022-10-01T18:17:33.626Z,100053.03
2022-10-01T18:20:01.552Z,100053.03
2022-10-01T18:22:28.354Z,100071.56
2022-10-01T18:24:55.128Z,100079.50
2022-10-01T18:27:24.398Z,100083.94
2022-10-01T18:29:51.107Z,100083.06
2022-10-01T18:32:25.352Z,100098.94
2022-10-01T18:35:01.757Z,100101.59
2022-10-01T18:37:36.294Z,100104.22
2022-10-01T18:40:41.878Z,100116.59
2022-10-01T18:43:11.439Z,100114.81
2022-10-01T18:45:53.251Z,100122.75
2022-10-01T18:48:24.586Z,100131.53
2022-10-01T18:51:12.872Z,100130.69
2022-10-01T18:54:17.819Z,100121.03
2022-10-01T18:57:05.079Z,100128.97
2022-10-01T18:59:57.735Z,100129.81
2022-10-01T19:02:55.012Z,100128.97
2022-10-01T19:05:33.555Z,100123.69
2022-10-01T19:08:29.629Z,100128.09
2022-10-01T19:11:21.821Z,100131.59
2022-10-01T19:14:06.598Z,100131.66
2022-10-01T19:16:54.020Z,100131.66
2022-10-01T19:19:26.489Z,100130.81
2022-10-01T19:22:00.540Z,100136.91
2022-10-01T19:24:27.076Z,100136.03
2022-10-01T19:27:09.940Z,100136.03
2022-10-01T19:29:43.084Z,100130.81
2022-10-01T19:32:15.950Z,100136.94
2022-10-01T19:35:02.250Z,100142.22
2022-10-01T19:37:28.770Z,100143.16
2022-10-01T19:39:58.042Z,100141.38
2022-10-01T19:42:28.782Z,100136.09
2022-10-01T19:45:05.936Z,100141.38
2022-10-01T19:47:48.223Z,100144.03
2022-10-01T19:50:25.043Z,100149.31
2022-10-01T19:52:55.404Z,100146.66
2022-10-01T19:55:23.096Z,100150.16
2022-10-01T19:57:49.772Z,100151.97
2022-10-01T20:00:19.610Z,100149.31
2022-10-01T20:02:54.531Z,100150.25
2022-10-01T20:05:26.099Z,100157.25
2022-10-01T20:08:05.363Z,100149.37
2022-10-01T20:10:56.883Z,100156.38
2022-10-01T20:13:48.200Z,100151.19
2022-10-01T20:16:28.182Z,100159.97
2022-10-01T20:19:16.164Z,100158.19
2022-10-01T20:21:48.564Z,100148.53
2022-10-01T20:24:18.922Z,100158.25
2022-10-01T20:27:13.415Z,100167.91
2022-10-01T20:29:54.430Z,100164.41
2022-10-01T20:32:36.040Z,100154.75
2022-10-01T20:35:26.287Z,100164.41
2022-10-01T20:38:21.020Z,100174.97
2022-10-01T20:40:55.444Z,100167.97
2022-10-01T20:43:33.295Z,100170.62
2022-10-01T20:46:13.320Z,100180.34
2022-10-01T20:48:43.712Z,100183.84
2022-10-01T20:51:15.446Z,100193.56
2022-10-01T20:53:54.223Z,100197.97
2022-10-01T20:56:20.644Z,100196.25
2022-10-01T20:58:54.575Z,100197.97
2022-10-01T21:01:26.285Z,100209.44
2022-10-01T21:04:01.444Z,100207.66
2022-10-01T21:06:39.300Z,100223.56
2022-10-01T21:09:08.975Z,100229.69
2022-10-01T21:11:41.704Z,100238.53
2022-10-01T21:14:28.150Z,100234.13
2022-10-01T21:16:54.670Z,100235.00
2022-10-01T21:19:26.196Z,100233.28
2022-10-01T21:21:58.128Z,100241.22
2022-10-01T21:24:27.627Z,100242.06
2022-10-01T21:27:14.496Z,100254.44
2022-10-01T21:30:00.752Z,100257.06
2022-10-01T21:33:06.535Z,100259.72
2022-10-01T21:35:51.961Z,100259.72
2022-10-01T21:38:26.005Z,100262.38
2022-10-01T21:40:54.735Z,100264.16
2022-10-01T21:43:56.474Z,100263.28
2022-10-01T21:46:39.174Z,100264.16
2022-10-01T21:49:26.752Z,100253.66
2022-10-01T21:52:05.540Z,100263.28
2022-10-01T21:54:49.504Z,100260.66
2022-10-01T21:57:31.487Z,100251.88
2022-10-01T22:00:21.372Z,100254.50
2022-10-01T22:03:03.588Z,100245.72
2022-10-01T22:05:39.018Z,100252.78
2022-10-01T22:08:15.008Z,100250.16
2022-10-01T22:10:44.607Z,100243.06
2022-10-01T22:13:22.221Z,100251.09
2022-10-01T22:15:52.095Z,100262.50
2022-10-01T22:18:41.264Z,100263.38
2022-10-01T22:21:11.541Z,100246.66
2022-10-01T22:23:40.088Z,100249.28
2022-10-01T22:26:15.397Z,100248.44
2022-10-01T22:28:44.949Z,100244.00
2022-10-01T22:31:15.707Z,100241.34
2022-10-01T22:33:46.641Z,100249.28
2022-10-01T22:36:34.071Z,100251.09
2022-10-01T22:39:03.864Z,100263.41
2022-10-01T22:41:34.951Z,100252.84
2022-10-01T22:44:02.893Z,100262.56
2022-10-01T22:46:48.619Z,100257.28
2022-10-01T22:49:15.046Z,100268.69
2022-10-01T22:52:00.026Z,100280.22
2022-10-01T22:54:51.055Z,100280.22
2022-10-01T22:57:36.351Z,100278.41
2022-10-01T23:00:09.572Z,100285.50
2022-10-01T23:02:39.810Z,100295.22
2022-10-01T23:05:19.301Z,100293.50
2022-10-01T23:08:12.660Z,100313.72
2022-10-01T23:10:50.474Z,100304.00
2022-10-01T23:13:25.755Z,100300.50
2022-10-01T23:15:58.708Z,100306.66
2022-10-01T23:18:35.008Z,100298.78
2022-10-01T23:21:32.656Z,100290.84
2022-10-01T23:24:18.508Z,100286.44
2022-10-01T23:27:36.601Z,100279.44
2022-10-01T23:30:14.310Z,100283.84
2022-10-01T23:33:03.224Z,100283.84
2022-10-01T23:35:45.183Z,100269.72
2022-10-01T23:38:23.458Z,100288.28
2022-10-01T23:40:54.573Z,100288.28
2022-10-01T23:43:25.649Z,100290.00
2022-10-01T23:46:02.793Z,100286.50
2022-10-01T23:48:44.566Z,100303.25
2022-10-01T23:51:20.319Z,100296.22
2022-10-01T23:54:03.668Z,100291.84
2022-10-01T23:56:50.437Z,100294.47
2022-10-01T23:59:23.289Z,100312.97
